20 kts Crosswind landing A380 in Nice

  • N125AS

Генерируем линк для скачивания, подождите пожалуйста . . .


Линк для скачивания сгенерирован.


Опубликовано: 1 week ago
Metar LFMN
111130Z 33020KT 9999 FEW040 15/M11 Q1014 NOSIG


Поделиться:


comment  Комментарии

Very nice plane Airbus 380. 👍 ☺

3 days ago

Базара нет, круто! Для тех, кто понимает. Глиссада короткая, полоса тоже, а боковичок хороший!

4 days ago

Which airport is ???

5 days ago

+N125AS thanks

4 days ago

Nice Côte d'Azur, France . NCE/LFMN

4 days ago

Very nice 👍👍👍

5 days ago

Thank you very much Ashkan !

4 days ago

Where is ?

5 days ago

Thant's a good idea ! enjoy your flight ;)

4 days ago

+N125AS ok thank you I'm doing a video with FSX from this airport

4 days ago

Nice Côte d'Azur, France . NCE/LFMN

4 days ago

Great shot, thank you!

5 days ago

Thank you very much David

5 days ago

👎

5 days ago

I wouldn’t think that a air 380 bus can be disturbed
by a 20 knot cross winds

6 days ago

Beautyfull landing 😚

6 days ago

quelle vue !! spendide vidéo

1 week ago

je confirme

1 week ago

On a de la chance à Nice, c'est vrai !

1 week ago

You can't beat that view of the approach and landing, great video!

1 week ago

Thanks a lot ;)

1 week ago

Takeoff et landing...double crosswind ! Bravo Richard.

1 week ago

merci Yannis !

1 week ago

Muito bonito as imagens -Brasil

1 week ago

Obrigado !

4 days ago

Où est ton spot

1 week ago